createdAt,value
2018-11-01T00:00:42.660Z,99.90
2018-11-01T00:03:10.450Z,99.90
2018-11-01T00:05:38.290Z,99.90
2018-11-01T00:08:06.128Z,99.90
2018-11-01T00:10:33.767Z,99.90
2018-11-01T00:13:01.567Z,99.90
2018-11-01T00:15:29.171Z,99.90
2018-11-01T00:17:56.875Z,99.90
2018-11-01T00:20:24.631Z,99.90
2018-11-01T00:22:52.280Z,99.90
2018-11-01T00:25:19.925Z,99.90
2018-11-01T00:27:47.661Z,99.90
2018-11-01T00:30:15.458Z,99.90
2018-11-01T00:32:43.425Z,99.90
2018-11-01T00:35:11.611Z,99.90
2018-11-01T00:37:39.224Z,99.90
2018-11-01T00:40:11.631Z,99.90
2018-11-01T00:42:39.325Z,99.90
2018-11-01T00:45:07.801Z,99.90
2018-11-01T00:47:41.643Z,99.90
2018-11-01T00:50:11.389Z,99.90
2018-11-01T00:52:39.326Z,99.90
2018-11-01T00:55:07.671Z,99.90
2018-11-01T00:57:35.685Z,99.90
2018-11-01T01:00:03.596Z,99.90
2018-11-01T01:02:32.579Z,99.90
2018-11-01T01:05:00.178Z,99.90
2018-11-01T01:07:28.069Z,99.90
2018-11-01T01:09:55.790Z,99.90
2018-11-01T01:12:23.442Z,99.90
2018-11-01T01:14:51.280Z,99.90
2018-11-01T01:17:19.071Z,99.90
2018-11-01T01:19:46.758Z,99.90
2018-11-01T01:22:14.386Z,99.90
2018-11-01T01:24:42.062Z,99.90
2018-11-01T01:27:09.830Z,99.90
2018-11-01T01:29:38.687Z,99.90
2018-11-01T01:32:06.340Z,99.90
2018-11-01T01:34:34.148Z,99.90
2018-11-01T01:37:01.855Z,99.80
2018-11-01T01:39:29.564Z,99.80
2018-11-01T01:41:57.305Z,99.70
2018-11-01T01:44:24.977Z,99.90
2018-11-01T01:46:52.660Z,99.70
2018-11-01T01:49:20.538Z,99.60
2018-11-01T01:51:48.267Z,99.60
2018-11-01T01:54:15.988Z,99.30
2018-11-01T01:56:44.765Z,99.80
2018-11-01T01:59:12.364Z,99.50
2018-11-01T02:01:40.203Z,99.50
2018-11-01T02:04:07.845Z,99.40
2018-11-01T02:06:35.580Z,99.30
2018-11-01T02:09:04.579Z,99.20
2018-11-01T02:11:32.345Z,99.20
2018-11-01T02:13:59.972Z,99.10
2018-11-01T02:16:27.629Z,99.30
2018-11-01T02:18:55.309Z,98.80
2018-11-01T02:21:23.101Z,98.90
2018-11-01T02:23:50.846Z,98.80
2018-11-01T02:26:18.495Z,98.70
2018-11-01T02:28:46.195Z,98.70
2018-11-01T02:31:13.864Z,98.60
2018-11-01T02:33:41.621Z,98.50
2018-11-01T02:36:09.264Z,98.40
2018-11-01T02:38:36.992Z,98.30
2018-11-01T02:41:04.856Z,98.10
2018-11-01T02:43:32.375Z,98.00
2018-11-01T02:46:01.096Z,98.00
2018-11-01T02:48:28.873Z,97.90
2018-11-01T02:50:56.451Z,98.20
2018-11-01T02:53:24.173Z,97.80
2018-11-01T02:55:52.028Z,97.80
2018-11-01T02:58:19.783Z,97.60
2018-11-01T03:00:47.475Z,97.70
2018-11-01T03:03:15.250Z,97.60
2018-11-01T03:05:43.118Z,97.60
2018-11-01T03:08:10.876Z,97.50
2018-11-01T03:10:38.620Z,97.50
2018-11-01T03:13:06.322Z,97.40
2018-11-01T03:15:34.026Z,97.40
2018-11-01T03:18:01.762Z,97.30
2018-11-01T03:20:29.405Z,97.30
2018-11-01T03:22:57.114Z,97.40
2018-11-01T03:25:24.769Z,97.20
2018-11-01T03:27:52.525Z,97.10
2018-11-01T03:30:20.312Z,97.00
2018-11-01T03:32:48.116Z,96.90
2018-11-01T03:35:15.947Z,96.80
2018-11-01T03:37:43.630Z,96.70
2018-11-01T03:40:11.799Z,96.70
2018-11-01T03:42:40.209Z,96.70
2018-11-01T03:45:09.025Z,96.80
2018-11-01T03:47:36.995Z,96.70
2018-11-01T03:50:05.188Z,96.80
2018-11-01T03:52:33.120Z,96.70
2018-11-01T03:55:00.868Z,97.10
2018-11-01T03:57:28.532Z,96.70
2018-11-01T03:59:56.189Z,96.70
2018-11-01T04:02:24.254Z,96.70
2018-11-01T04:04:51.979Z,96.70
2018-11-01T04:07:20.019Z,96.70
2018-11-01T04:09:48.346Z,96.70
2018-11-01T04:12:16.695Z,96.70
2018-11-01T04:14:45.067Z,96.50
2018-11-01T04:17:12.937Z,96.40
2018-11-01T04:19:40.780Z,96.40
2018-11-01T04:22:08.419Z,96.40
2018-11-01T04:24:37.295Z,96.40
2018-11-01T04:27:06.081Z,96.30
2018-11-01T04:29:35.700Z,96.30
2018-11-01T04:32:04.974Z,96.20
2018-11-01T04:34:32.594Z,96.20
2018-11-01T04:37:00.326Z,96.00
2018-11-01T04:39:28.048Z,96.00
2018-11-01T04:41:55.977Z,96.00
2018-11-01T04:44:23.926Z,96.00
2018-11-01T04:46:51.825Z,96.00
2018-11-01T04:49:19.641Z,96.00
2018-11-01T04:51:47.513Z,96.00
2018-11-01T04:54:15.398Z,96.00
2018-11-01T04:56:43.281Z,96.00
2018-11-01T04:59:11.122Z,96.00
2018-11-01T05:01:38.704Z,96.00
2018-11-01T05:04:06.552Z,96.00
2018-11-01T05:06:34.256Z,96.10
2018-11-01T05:09:02.276Z,96.10
2018-11-01T05:11:29.896Z,96.00
2018-11-01T05:13:57.733Z,96.00
2018-11-01T05:16:25.631Z,96.00
2018-11-01T05:18:53.451Z,96.00
2018-11-01T05:21:21.083Z,96.00
2018-11-01T05:23:48.708Z,95.90
2018-11-01T05:26:16.584Z,95.90
2018-11-01T05:28:44.228Z,95.90
2018-11-01T05:31:11.893Z,95.90
2018-11-01T05:33:39.571Z,95.90
2018-11-01T05:36:07.208Z,95.90
2018-11-01T05:38:37.567Z,95.80
2018-11-01T05:41:06.711Z,95.70
2018-11-01T05:43:34.573Z,95.60
2018-11-01T05:46:02.475Z,95.60
2018-11-01T05:48:30.205Z,95.60
2018-11-01T05:50:58.085Z,95.50
2018-11-01T05:53:25.868Z,95.40
2018-11-01T05:55:53.849Z,95.40
2018-11-01T05:58:21.685Z,95.40
2018-11-01T06:00:49.522Z,95.40
2018-11-01T06:03:17.603Z,95.50
2018-11-01T06:05:45.916Z,95.50
2018-11-01T06:08:18.986Z,95.50
2018-11-01T06:10:47.100Z,95.50
2018-11-01T06:13:14.927Z,95.40
2018-11-01T06:15:42.590Z,95.40
2018-11-01T06:18:10.443Z,95.40
2018-11-01T06:20:38.520Z,95.50
2018-11-01T06:23:06.584Z,95.50
2018-11-01T06:25:35.085Z,95.40
2018-11-01T06:28:03.524Z,95.40
2018-11-01T06:30:31.639Z,95.30
2018-11-01T06:32:59.604Z,95.40
2018-11-01T06:35:30.838Z,95.40
2018-11-01T06:37:59.727Z,95.40
2018-11-01T06:40:27.592Z,95.40
2018-11-01T06:42:55.372Z,95.30
2018-11-01T06:45:23.200Z,95.20
2018-11-01T06:47:51.128Z,95.20
2018-11-01T06:50:19.150Z,95.10
2018-11-01T06:52:47.083Z,95.20
2018-11-01T06:55:15.234Z,95.20
2018-11-01T06:57:43.235Z,95.20
2018-11-01T07:00:13.652Z,95.20
2018-11-01T07:02:42.274Z,95.30
2018-11-01T07:05:10.517Z,95.30
2018-11-01T07:07:38.943Z,95.40
2018-11-01T07:10:08.801Z,95.40
2018-11-01T07:12:36.693Z,95.40
2018-11-01T07:15:05.674Z,95.50
2018-11-01T07:17:33.685Z,95.60
2018-11-01T07:20:01.699Z,95.60
2018-11-01T07:22:29.387Z,95.60
2018-11-01T07:24:57.334Z,95.70
2018-11-01T07:27:25.716Z,95.70
2018-11-01T07:29:53.579Z,95.70
2018-11-01T07:32:21.429Z,95.70
2018-11-01T07:34:49.119Z,95.70
2018-11-01T07:37:17.026Z,95.80
2018-11-01T07:39:44.645Z,95.80
2018-11-01T07:42:12.313Z,95.80
2018-11-01T07:44:40.524Z,95.70
2018-11-01T07:47:08.482Z,95.80
2018-11-01T07:49:36.610Z,95.80
2018-11-01T07:52:04.683Z,95.90
2018-11-01T07:54:32.474Z,95.90
2018-11-01T07:57:00.155Z,95.90
2018-11-01T07:59:28.007Z,95.90
2018-11-01T08:01:55.978Z,95.90
2018-11-01T08:04:24.299Z,95.90
2018-11-01T08:06:53.912Z,95.90
2018-11-01T08:09:21.694Z,96.00
2018-11-01T08:11:49.600Z,96.00
2018-11-01T08:14:17.866Z,96.10
2018-11-01T08:16:45.734Z,96.10
2018-11-01T08:19:13.441Z,96.10
2018-11-01T08:21:41.278Z,96.10
2018-11-01T08:24:09.028Z,96.20
2018-11-01T08:26:36.701Z,96.20
2018-11-01T08:29:04.606Z,96.30
2018-11-01T08:31:32.352Z,96.30
2018-11-01T08:34:00.373Z,96.60
2018-11-01T08:36:28.579Z,96.50
2018-11-01T08:38:56.337Z,96.50
2018-11-01T08:41:24.232Z,96.50
2018-11-01T08:46:45.509Z,96.50
2018-11-01T08:49:13.468Z,96.50
2018-11-01T08:51:42.506Z,96.50
2018-11-01T08:54:10.337Z,96.60
2018-11-01T08:56:38.258Z,96.70
2018-11-01T08:59:06.131Z,96.80
2018-11-01T09:01:35.282Z,96.80
2018-11-01T09:04:12.158Z,96.80
2018-11-01T09:06:42.121Z,96.80
2018-11-01T09:09:10.020Z,96.80
2018-11-01T09:11:38.305Z,96.80
2018-11-01T09:14:06.102Z,96.90
2018-11-01T09:16:33.976Z,96.90
2018-11-01T09:19:01.951Z,96.60
2018-11-01T09:21:29.851Z,96.90
2018-11-01T09:23:59.319Z,97.00
2018-11-01T09:26:26.968Z,97.00
2018-11-01T09:28:54.634Z,97.10
2018-11-01T09:31:23.679Z,97.10
2018-11-01T09:33:51.833Z,97.20
2018-11-01T09:36:30.520Z,97.10
2018-11-01T09:38:58.719Z,97.10
2018-11-01T09:41:32.634Z,97.00
2018-11-01T09:44:00.350Z,97.00
2018-11-01T09:46:28.417Z,96.90
2018-11-01T09:48:56.133Z,97.00
2018-11-01T09:51:24.329Z,97.00
2018-11-01T09:53:52.087Z,97.10
2018-11-01T09:56:19.914Z,97.10
2018-11-01T09:58:47.959Z,97.10
2018-11-01T10:01:22.504Z,97.10
2018-11-01T10:03:50.367Z,97.10
2018-11-01T10:06:18.419Z,97.20
2018-11-01T10:08:50.242Z,97.20
2018-11-01T10:11:18.031Z,97.20
2018-11-01T10:13:46.331Z,97.20
2018-11-01T10:16:16.472Z,97.20
2018-11-01T10:18:47.991Z,97.30
2018-11-01T10:21:17.181Z,97.30
2018-11-01T10:23:47.094Z,97.30
2018-11-01T10:26:14.844Z,97.40
2018-11-01T10:28:42.742Z,97.40
2018-11-01T10:31:10.703Z,97.50
2018-11-01T10:33:39.848Z,97.50
2018-11-01T10:36:07.885Z,97.40
2018-11-01T10:38:35.837Z,97.60
2018-11-01T10:41:03.870Z,97.60
2018-11-01T10:43:32.212Z,97.70
2018-11-01T10:45:59.940Z,97.60
2018-11-01T10:48:28.027Z,97.60
2018-11-01T10:50:55.991Z,97.60
2018-11-01T10:53:25.876Z,97.60
2018-11-01T10:55:57.105Z,97.60
2018-11-01T10:58:26.407Z,97.50
2018-11-01T11:02:02.916Z,97.50
2018-11-01T11:04:31.645Z,97.40
2018-11-01T11:06:59.430Z,97.40
2018-11-01T11:09:28.314Z,97.40
2018-11-01T11:12:02.865Z,97.30
2018-11-01T11:14:31.240Z,97.30
2018-11-01T11:16:59.013Z,97.30
2018-11-01T11:19:28.254Z,97.20
2018-11-01T11:21:56.175Z,97.20
2018-11-01T11:24:24.136Z,97.20
2018-11-01T11:26:52.100Z,97.20
2018-11-01T11:29:20.302Z,97.20
2018-11-01T11:31:48.131Z,97.10
2018-11-01T11:34:16.032Z,97.10
2018-11-01T11:36:44.091Z,97.10
2018-11-01T11:39:12.857Z,97.10
2018-11-01T11:41:42.055Z,97.20
2018-11-01T11:44:10.409Z,97.10
2018-11-01T11:46:38.826Z,97.50
2018-11-01T11:49:06.739Z,97.20
2018-11-01T11:51:34.874Z,97.10
2018-11-01T11:54:03.591Z,97.20
2018-11-01T11:56:31.878Z,97.20
2018-11-01T11:58:59.708Z,97.20
2018-11-01T12:01:27.512Z,97.20
2018-11-01T12:03:55.405Z,97.20
2018-11-01T12:06:23.577Z,97.20
2018-11-01T12:08:51.336Z,97.20
2018-11-01T12:11:19.418Z,97.30
2018-11-01T12:13:47.969Z,97.30
2018-11-01T12:16:15.964Z,97.60
2018-11-01T12:18:44.377Z,97.40
2018-11-01T12:21:12.172Z,97.40
2018-11-01T12:23:39.898Z,97.50
2018-11-01T12:26:09.918Z,97.50
2018-11-01T12:35:38.960Z,97.60
2018-11-01T12:38:06.772Z,97.70
2018-11-01T12:40:34.832Z,97.80
2018-11-01T12:43:02.457Z,97.80
2018-11-01T12:45:30.167Z,97.80
2018-11-01T12:47:58.023Z,97.90
2018-11-01T12:50:25.882Z,97.90
2018-11-01T12:52:56.569Z,97.90
2018-11-01T12:55:24.339Z,98.00
2018-11-01T12:57:52.155Z,98.00
2018-11-01T13:00:19.829Z,98.00
2018-11-01T13:02:47.863Z,97.90
2018-11-01T13:05:15.652Z,97.90
2018-11-01T13:07:43.529Z,98.20
2018-11-01T13:10:13.632Z,97.60
2018-11-01T13:12:42.048Z,97.80
2018-11-01T13:15:12.559Z,97.80
2018-11-01T13:17:40.952Z,97.80
2018-11-01T13:20:09.472Z,97.90
2018-11-01T13:22:38.455Z,98.00
2018-11-01T13:25:07.222Z,98.10
2018-11-01T13:27:35.027Z,98.20
2018-11-01T13:30:03.803Z,98.20
2018-11-01T13:32:31.859Z,98.30
2018-11-01T13:35:00.915Z,98.40
2018-11-01T13:37:29.030Z,98.60
2018-11-01T13:39:56.907Z,98.60
2018-11-01T13:42:24.340Z,98.70
2018-11-01T13:44:52.652Z,98.70
2018-11-01T13:47:20.535Z,98.80
2018-11-01T13:49:52.608Z,98.80
2018-11-01T13:52:20.272Z,98.90
2018-11-01T13:54:49.295Z,99.00
2018-11-01T13:57:18.126Z,99.00
2018-11-01T13:59:47.197Z,99.00
2018-11-01T14:02:15.978Z,99.20
2018-11-01T14:04:43.940Z,99.30
2018-11-01T14:07:11.724Z,99.40
2018-11-01T14:09:39.516Z,99.60
2018-11-01T14:12:07.544Z,99.70
2018-11-01T14:14:35.719Z,99.90
2018-11-01T14:17:06.361Z,99.90
2018-11-01T14:19:39.161Z,99.90
2018-11-01T14:22:07.013Z,99.90
2018-11-01T14:24:34.919Z,99.90
2018-11-01T14:27:02.877Z,99.90
2018-11-01T14:29:31.127Z,99.90
2018-11-01T14:32:09.097Z,99.90
2018-11-01T14:34:37.038Z,99.90
2018-11-01T14:37:04.770Z,99.90
2018-11-01T14:39:36.226Z,99.90
2018-11-01T14:42:04.267Z,99.90
2018-11-01T14:44:36.536Z,99.90
2018-11-01T14:47:04.413Z,99.90
2018-11-01T14:49:32.207Z,99.90
2018-11-01T14:52:02.639Z,99.90
2018-11-01T14:54:31.601Z,99.90
2018-11-01T14:57:01.019Z,99.90
2018-11-01T14:59:28.570Z,99.90
2018-11-01T15:01:55.170Z,99.90
2018-11-01T15:04:23.278Z,99.90
2018-11-01T15:06:55.320Z,99.90
2018-11-01T15:09:23.215Z,99.90
2018-11-01T15:11:51.059Z,99.90
2018-11-01T15:14:19.759Z,99.90
2018-11-01T15:16:48.775Z,99.90
2018-11-01T15:19:16.702Z,99.90
2018-11-01T15:21:44.532Z,99.90
2018-11-01T15:24:14.355Z,99.90
2018-11-01T15:26:42.145Z,99.90
2018-11-01T15:29:11.027Z,99.90
2018-11-01T15:31:38.815Z,99.90
2018-11-01T15:34:07.340Z,99.90
2018-11-01T15:36:34.997Z,99.90
2018-11-01T15:39:03.617Z,99.90
2018-11-01T15:41:31.365Z,99.90
2018-11-01T15:44:00.457Z,99.90
2018-11-01T15:46:33.247Z,99.90
2018-11-01T15:49:01.436Z,99.90
2018-11-01T15:51:29.594Z,99.90
2018-11-01T15:53:57.962Z,99.90
2018-11-01T15:56:27.706Z,99.90
2018-11-01T15:58:55.888Z,99.90
2018-11-01T16:01:23.887Z,99.90
2018-11-01T16:03:52.037Z,99.90
2018-11-01T16:06:19.747Z,99.90
2018-11-01T16:08:47.786Z,99.90
2018-11-01T16:11:17.615Z,99.90
2018-11-01T16:13:45.611Z,99.90
2018-11-01T16:16:13.380Z,99.90
2018-11-01T16:18:41.195Z,99.90
2018-11-01T16:21:08.906Z,99.90
2018-11-01T16:23:36.792Z,99.90
2018-11-01T16:26:06.561Z,99.90
2018-11-01T16:28:34.748Z,99.90
2018-11-01T16:31:08.036Z,99.90
2018-11-01T16:33:40.717Z,99.90
2018-11-01T16:36:08.950Z,99.90
2018-11-01T16:38:38.020Z,99.90
2018-11-01T16:41:07.119Z,99.90
2018-11-01T16:43:37.068Z,99.90
2018-11-01T16:46:11.489Z,99.90
2018-11-01T16:48:40.500Z,99.90
2018-11-01T16:51:13.496Z,99.90
2018-11-01T16:53:41.201Z,99.90
2018-11-01T16:56:08.895Z,99.90
2018-11-01T16:58:36.838Z,99.90
2018-11-01T17:01:04.799Z,99.90
2018-11-01T17:03:32.684Z,99.90
2018-11-01T17:06:01.212Z,99.90
2018-11-01T17:08:29.082Z,99.90
2018-11-01T17:10:58.649Z,99.90
2018-11-01T17:13:26.525Z,99.90
2018-11-01T17:15:54.228Z,99.90
2018-11-01T17:18:22.056Z,99.90
2018-11-01T17:20:49.761Z,99.90
2018-11-01T17:23:17.609Z,99.90
2018-11-01T17:25:45.280Z,99.90
2018-11-01T17:28:13.749Z,99.90
2018-11-01T17:30:42.411Z,99.90
2018-11-01T17:33:10.218Z,99.90
2018-11-01T17:35:39.357Z,99.90
2018-11-01T17:38:07.062Z,99.90
2018-11-01T17:40:34.844Z,99.90
2018-11-01T17:43:02.836Z,99.90
2018-11-01T17:45:30.696Z,99.90
2018-11-01T17:47:58.745Z,99.90
2018-11-01T17:50:27.712Z,99.90
2018-11-01T17:52:55.389Z,99.90
2018-11-01T17:55:24.355Z,99.90
2018-11-01T17:57:52.442Z,99.90
2018-11-01T18:00:20.530Z,99.90
2018-11-01T18:02:50.783Z,99.90
2018-11-01T18:05:19.348Z,99.90
2018-11-01T18:07:48.209Z,99.90
2018-11-01T18:10:21.644Z,99.90
2018-11-01T18:12:49.821Z,99.90
2018-11-01T18:15:17.457Z,99.90
2018-11-01T18:17:45.216Z,99.90
2018-11-01T18:20:13.461Z,99.90
2018-11-01T18:22:41.937Z,99.90
2018-11-01T18:25:11.286Z,99.90
2018-11-01T18:27:41.806Z,99.90
2018-11-01T18:30:13.061Z,99.90
2018-11-01T18:32:42.771Z,99.90
2018-11-01T18:35:12.224Z,99.90
2018-11-01T18:37:44.040Z,99.90
2018-11-01T18:40:15.077Z,99.90
2018-11-01T18:42:43.292Z,99.90
2018-11-01T18:45:12.348Z,99.90
2018-11-01T18:47:40.316Z,99.90
2018-11-01T18:50:10.677Z,99.90
2018-11-01T18:52:38.405Z,99.90
2018-11-01T18:55:08.782Z,99.90
2018-11-01T18:57:36.650Z,99.90
2018-11-01T19:00:08.984Z,99.90
2018-11-01T19:02:37.624Z,99.90
2018-11-01T19:05:07.672Z,99.90
2018-11-01T19:07:36.031Z,99.90
2018-11-01T19:10:04.421Z,99.90
2018-11-01T19:12:32.502Z,99.90
2018-11-01T19:15:01.875Z,99.90
2018-11-01T19:17:30.049Z,99.90
2018-11-01T19:19:58.279Z,99.90
2018-11-01T19:22:26.655Z,99.90
2018-11-01T19:24:54.738Z,99.90
2018-11-01T19:27:22.886Z,99.90
2018-11-01T19:29:51.069Z,99.90
2018-11-01T19:32:20.147Z,99.90
2018-11-01T19:34:48.561Z,99.90
2018-11-01T19:37:18.196Z,99.90
2018-11-01T19:39:47.575Z,99.90
2018-11-01T19:42:15.679Z,99.90
2018-11-01T19:44:43.499Z,99.90
2018-11-01T19:47:11.212Z,99.90
2018-11-01T19:49:40.570Z,99.90
2018-11-01T19:52:08.262Z,99.90
2018-11-01T19:54:36.496Z,99.90
2018-11-01T19:57:04.899Z,99.90
2018-11-01T19:59:32.600Z,99.90
2018-11-01T20:02:00.395Z,99.90
2018-11-01T20:04:28.752Z,99.90
2018-11-01T20:06:58.133Z,99.90
2018-11-01T20:09:26.025Z,99.90
2018-11-01T20:11:54.427Z,99.90
2018-11-01T20:14:24.669Z,99.90
2018-11-01T20:16:53.812Z,99.90
2018-11-01T20:19:21.794Z,99.90
2018-11-01T20:21:49.414Z,99.90
2018-11-01T20:24:17.540Z,99.90
2018-11-01T20:26:45.455Z,99.90
2018-11-01T20:29:13.750Z,99.90
2018-11-01T20:31:41.849Z,99.90
2018-11-01T20:34:10.034Z,99.90
2018-11-01T20:36:37.971Z,99.90
2018-11-01T20:39:08.282Z,99.90
2018-11-01T20:41:36.135Z,99.90
2018-11-01T20:44:04.365Z,99.90
2018-11-01T20:46:32.957Z,99.90
2018-11-01T20:49:00.853Z,99.90
2018-11-01T20:51:29.134Z,99.90
2018-11-01T20:54:03.653Z,99.90
2018-11-01T20:56:31.878Z,99.90
2018-11-01T20:59:00.261Z,99.90
2018-11-01T21:01:28.939Z,99.90
2018-11-01T21:03:57.437Z,99.90
2018-11-01T21:06:26.374Z,99.90
2018-11-01T21:09:00.437Z,99.90
2018-11-01T21:11:28.524Z,99.90
2018-11-01T21:13:56.723Z,99.90
2018-11-01T21:16:25.740Z,99.90
2018-11-01T21:18:53.690Z,99.90
2018-11-01T21:21:21.499Z,99.90
2018-11-01T21:23:49.218Z,99.90
2018-11-01T21:26:17.099Z,99.90
2018-11-01T21:28:44.811Z,99.90
2018-11-01T21:31:12.621Z,99.90
2018-11-01T21:33:40.366Z,99.90
2018-11-01T21:36:07.992Z,99.90
2018-11-01T21:38:35.800Z,99.90
2018-11-01T21:41:03.629Z,99.90
2018-11-01T21:43:31.429Z,99.90
2018-11-01T21:45:59.351Z,99.90
2018-11-01T21:48:27.093Z,99.90
2018-11-01T21:50:54.874Z,99.90
2018-11-01T21:53:22.663Z,99.90
2018-11-01T21:55:54.281Z,99.90
2018-11-01T21:58:21.996Z,99.90
2018-11-01T22:00:51.780Z,99.90
2018-11-01T22:03:19.440Z,99.90
2018-11-01T22:05:48.403Z,99.90
2018-11-01T22:08:16.174Z,99.90
2018-11-01T22:10:43.820Z,99.90
2018-11-01T22:13:11.466Z,99.90
2018-11-01T22:15:40.646Z,99.90
2018-11-01T22:18:08.363Z,99.90
2018-11-01T22:20:36.186Z,99.90
2018-11-01T22:23:03.989Z,99.90
2018-11-01T22:25:31.582Z,99.90
2018-11-01T22:27:59.290Z,99.90
2018-11-01T22:30:26.992Z,99.90
2018-11-01T22:32:55.603Z,99.90
2018-11-01T22:35:23.296Z,99.90
2018-11-01T22:37:50.948Z,99.90
2018-11-01T22:40:18.932Z,99.90
2018-11-01T22:42:46.768Z,99.90
2018-11-01T22:45:14.760Z,99.90
2018-11-01T22:47:42.626Z,99.90
2018-11-01T22:50:11.098Z,99.90
2018-11-01T22:52:39.403Z,99.90
2018-11-01T22:55:13.859Z,99.90
2018-11-01T22:57:41.759Z,99.90
2018-11-01T23:00:11.569Z,99.90
2018-11-01T23:02:39.183Z,99.90
2018-11-01T23:05:07.402Z,99.90
2018-11-01T23:07:35.132Z,99.90
2018-11-01T23:10:03.450Z,99.90
2018-11-01T23:12:31.301Z,99.90
2018-11-01T23:14:59.031Z,99.90
2018-11-01T23:17:33.916Z,99.90
2018-11-01T23:20:01.966Z,99.90
2018-11-01T23:22:29.729Z,99.90
2018-11-01T23:24:57.540Z,99.90
2018-11-01T23:27:25.238Z,99.90
2018-11-01T23:29:52.915Z,99.90
2018-11-01T23:32:20.850Z,99.90
2018-11-01T23:34:48.514Z,99.90
2018-11-01T23:37:25.429Z,99.90
2018-11-01T23:39:58.646Z,99.90
2018-11-01T23:42:32.132Z,99.90
2018-11-01T23:45:06.689Z,99.90
2018-11-01T23:47:40.183Z,99.90
2018-11-01T23:50:19.979Z,99.90
2018-11-01T23:52:51.199Z,99.90
2018-11-01T23:55:18.943Z,99.90
2018-11-01T23:57:47.045Z,99.90
